createdAt,value
2018-12-18T00:01:57.612Z,3.94
2018-12-18T00:04:25.190Z,3.68
2018-12-18T00:06:52.769Z,3.70
2018-12-18T00:09:20.435Z,3.54
2018-12-18T00:11:48.008Z,3.91
2018-12-18T00:14:15.653Z,3.95
2018-12-18T00:16:43.392Z,3.97
2018-12-18T00:19:10.964Z,3.87
2018-12-18T00:21:38.581Z,3.93
2018-12-18T00:24:06.226Z,3.89
2018-12-18T00:26:33.805Z,3.68
2018-12-18T00:29:01.466Z,3.59
2018-12-18T00:31:29.244Z,3.45
2018-12-18T00:33:56.817Z,3.47
2018-12-18T00:36:24.413Z,3.49
2018-12-18T00:38:52.114Z,3.57
2018-12-18T00:41:19.729Z,3.46
2018-12-18T00:43:47.312Z,3.59
2018-12-18T00:46:15.191Z,3.58
2018-12-18T00:48:42.767Z,3.51
2018-12-18T00:51:10.360Z,3.48
2018-12-18T00:53:38.006Z,3.43
2018-12-18T00:56:05.585Z,3.49
2018-12-18T00:58:33.152Z,3.53
2018-12-18T01:01:00.878Z,3.40
2018-12-18T01:03:28.481Z,3.25
2018-12-18T01:05:56.073Z,3.33
2018-12-18T01:08:23.846Z,3.28
2018-12-18T01:10:53.408Z,3.13
2018-12-18T01:13:20.996Z,3.06
2018-12-18T01:15:48.726Z,3.08
2018-12-18T01:18:16.306Z,3.04
2018-12-18T01:20:43.875Z,3.20
2018-12-18T01:23:11.576Z,3.02
2018-12-18T01:25:39.163Z,2.86
2018-12-18T01:28:06.737Z,2.78
2018-12-18T01:30:34.520Z,2.89
2018-12-18T01:33:02.088Z,2.88
2018-12-18T01:35:29.662Z,2.82
2018-12-18T01:37:57.525Z,2.66
2018-12-18T01:40:25.160Z,2.75
2018-12-18T01:42:52.744Z,2.67
2018-12-18T01:45:20.462Z,2.87
2018-12-18T01:47:48.037Z,2.83
2018-12-18T01:50:15.617Z,2.76
2018-12-18T01:52:43.319Z,2.75
2018-12-18T01:55:10.884Z,2.64
2018-12-18T01:57:38.464Z,2.60
2018-12-18T02:00:06.477Z,2.66
2018-12-18T02:02:34.063Z,2.64
2018-12-18T02:05:01.655Z,2.71
2018-12-18T02:07:29.570Z,2.74
2018-12-18T02:09:57.181Z,2.71
2018-12-18T02:12:24.801Z,2.75
2018-12-18T02:14:52.658Z,2.70
2018-12-18T02:17:20.230Z,2.65
2018-12-18T02:19:47.818Z,2.58
2018-12-18T02:22:15.442Z,2.71
2018-12-18T02:24:43.020Z,2.71
2018-12-18T02:27:10.589Z,2.55
2018-12-18T02:29:38.313Z,2.54
2018-12-18T02:32:05.900Z,2.60
2018-12-18T02:34:33.473Z,2.73
2018-12-18T02:37:01.213Z,2.78
2018-12-18T02:39:28.794Z,2.80
2018-12-18T02:41:56.383Z,2.66
2018-12-18T02:44:24.018Z,2.60
2018-12-18T02:46:51.592Z,2.68
2018-12-18T02:49:19.199Z,2.60
2018-12-18T02:51:47.024Z,2.62
2018-12-18T02:54:14.590Z,2.55
2018-12-18T02:56:42.160Z,2.59
2018-12-18T02:59:09.868Z,2.64
2018-12-18T03:01:37.464Z,2.58
2018-12-18T03:04:05.061Z,2.58
2018-12-18T03:06:32.809Z,2.61
2018-12-18T03:09:00.390Z,2.76
2018-12-18T03:11:27.961Z,2.58
2018-12-18T03:13:55.815Z,2.67
2018-12-18T03:16:23.397Z,2.49
2018-12-18T03:18:50.986Z,2.67
2018-12-18T03:24:13.858Z,2.58
2018-12-18T03:26:41.788Z,2.54
2018-12-18T03:29:09.426Z,2.55
2018-12-18T03:31:37.047Z,2.57
2018-12-18T03:34:04.753Z,2.58
2018-12-18T03:36:32.344Z,2.46
2018-12-18T03:38:59.915Z,2.60
2018-12-18T03:41:27.670Z,2.52
2018-12-18T03:43:55.249Z,2.42
2018-12-18T03:46:22.856Z,2.39
2018-12-18T03:48:50.567Z,2.50
2018-12-18T03:51:30.789Z,2.47
2018-12-18T03:53:58.517Z,2.32
2018-12-18T03:56:26.099Z,2.34
2018-12-18T03:58:53.689Z,2.33
2018-12-18T04:01:21.473Z,2.31
2018-12-18T04:03:49.067Z,2.33
2018-12-18T04:06:16.649Z,2.39
2018-12-18T04:08:45.197Z,2.30
2018-12-18T04:11:12.814Z,2.31
2018-12-18T04:13:40.409Z,2.43
2018-12-18T04:16:08.154Z,2.41
2018-12-18T04:18:35.739Z,2.43
2018-12-18T04:21:03.351Z,2.39
2018-12-18T04:23:31.007Z,2.55
2018-12-18T04:25:58.602Z,2.42
2018-12-18T04:28:26.185Z,2.47
2018-12-18T04:30:54.918Z,2.37
2018-12-18T04:33:22.490Z,2.33
2018-12-18T04:35:50.087Z,2.52
2018-12-18T04:38:17.744Z,2.39
2018-12-18T04:40:45.341Z,2.39
2018-12-18T04:43:12.910Z,2.38
2018-12-18T04:45:40.731Z,2.25
2018-12-18T04:48:08.304Z,2.22
2018-12-18T04:50:35.885Z,2.19
2018-12-18T04:53:03.756Z,2.22
2018-12-18T04:55:31.336Z,2.22
2018-12-18T04:57:58.918Z,2.10
2018-12-18T05:00:26.618Z,2.11
2018-12-18T05:02:54.217Z,2.25
2018-12-18T05:05:21.806Z,2.21
2018-12-18T05:07:49.535Z,2.25
2018-12-18T05:10:17.131Z,2.15
2018-12-18T05:12:44.719Z,2.21
2018-12-18T05:15:12.387Z,2.22
2018-12-18T05:17:39.964Z,2.33
2018-12-18T05:20:07.602Z,2.15
2018-12-18T05:22:35.210Z,2.07
2018-12-18T05:25:03.049Z,2.15
2018-12-18T05:27:30.638Z,2.14
2018-12-18T05:29:58.674Z,2.22
2018-12-18T05:32:26.321Z,2.14
2018-12-18T05:34:56.696Z,2.17
2018-12-18T05:37:21.584Z,2.15
2018-12-18T05:39:49.242Z,2.10
2018-12-18T05:42:16.832Z,2.08
2018-12-18T05:44:44.694Z,2.11
2018-12-18T05:47:12.301Z,2.12
2018-12-18T05:49:39.881Z,2.20
2018-12-18T05:52:07.646Z,2.30
2018-12-18T05:54:35.253Z,2.18
2018-12-18T05:57:02.854Z,2.35
2018-12-18T05:59:30.477Z,2.39
2018-12-18T06:01:58.045Z,2.33
2018-12-18T06:04:25.614Z,2.29
2018-12-18T06:06:53.586Z,2.25
2018-12-18T06:09:21.162Z,2.29
2018-12-18T06:11:48.746Z,2.38
2018-12-18T06:14:16.724Z,2.22
2018-12-18T06:16:44.303Z,2.24
2018-12-18T06:19:11.893Z,2.21
2018-12-18T06:21:40.296Z,2.43
2018-12-18T06:24:07.883Z,2.34
2018-12-18T06:26:35.535Z,2.42
2018-12-18T06:29:03.260Z,2.30
2018-12-18T06:31:30.839Z,2.25
2018-12-18T06:33:58.418Z,2.33
2018-12-18T06:36:26.378Z,2.35
2018-12-18T06:38:53.973Z,2.20
2018-12-18T06:41:21.550Z,2.21
2018-12-18T06:43:49.313Z,2.24
2018-12-18T06:46:16.888Z,2.39
2018-12-18T06:48:44.473Z,2.26
2018-12-18T06:51:12.348Z,2.26
2018-12-18T06:53:39.914Z,2.22
2018-12-18T06:56:07.500Z,2.46
2018-12-18T06:58:35.443Z,2.29
2018-12-18T07:01:03.040Z,2.27
2018-12-18T07:03:30.629Z,2.29
2018-12-18T07:05:58.425Z,2.34
2018-12-18T07:08:25.999Z,2.33
2018-12-18T07:10:53.580Z,2.36
2018-12-18T07:13:21.301Z,2.40
2018-12-18T07:15:48.885Z,2.27
2018-12-18T07:18:16.468Z,2.30
2018-12-18T07:20:44.113Z,2.31
2018-12-18T07:23:11.702Z,2.29
2018-12-18T07:25:39.282Z,2.16
2018-12-18T07:28:07.023Z,2.28
2018-12-18T07:30:34.662Z,2.35
2018-12-18T07:33:02.247Z,2.21
2018-12-18T07:35:30.001Z,2.34
2018-12-18T07:37:57.588Z,2.29
2018-12-18T07:40:25.180Z,2.31
2018-12-18T07:42:52.957Z,2.35
2018-12-18T07:45:20.548Z,2.27
2018-12-18T07:47:48.137Z,2.32
2018-12-18T07:50:15.858Z,2.27
2018-12-18T07:52:43.442Z,2.20
2018-12-18T07:55:11.050Z,2.14
2018-12-18T07:57:38.876Z,2.05
2018-12-18T08:00:06.544Z,2.15
2018-12-18T08:02:34.137Z,2.14
2018-12-18T08:05:01.777Z,2.24
2018-12-18T08:07:29.341Z,2.23
2018-12-18T08:09:56.930Z,2.12
2018-12-18T08:12:27.561Z,2.16
2018-12-18T08:14:55.138Z,2.18
2018-12-18T08:17:22.705Z,2.21
2018-12-18T08:19:50.735Z,2.26
2018-12-18T08:22:18.318Z,2.27
2018-12-18T08:24:45.897Z,2.43
2018-12-18T08:27:13.828Z,2.35
2018-12-18T08:29:41.406Z,2.28
2018-12-18T08:32:09.613Z,2.21
2018-12-18T08:34:36.921Z,2.21
2018-12-18T08:37:04.506Z,2.16
2018-12-18T08:39:32.094Z,2.03
2018-12-18T08:41:59.945Z,1.89
2018-12-18T08:44:27.533Z,1.84
2018-12-18T08:46:55.145Z,1.92
2018-12-18T08:49:22.843Z,1.74
2018-12-18T08:51:50.422Z,1.91
2018-12-18T08:54:18.003Z,1.98
2018-12-18T08:56:45.793Z,1.90
2018-12-18T08:59:13.369Z,1.71
2018-12-18T09:01:40.959Z,1.71
2018-12-18T09:04:08.681Z,1.75
2018-12-18T09:06:36.265Z,1.70
2018-12-18T09:09:03.982Z,1.68
2018-12-18T09:11:31.598Z,1.58
2018-12-18T09:13:59.169Z,1.61
2018-12-18T09:16:32.493Z,1.53
2018-12-18T09:19:00.077Z,1.49
2018-12-18T09:21:27.691Z,1.60
2018-12-18T09:23:55.727Z,1.73
2018-12-18T09:26:23.297Z,1.61
2018-12-18T09:28:50.950Z,1.67
2018-12-18T09:31:18.599Z,1.88
2018-12-18T09:33:46.177Z,1.79
2018-12-18T09:36:13.762Z,1.84
2018-12-18T09:41:40.205Z,2.10
2018-12-18T09:44:08.039Z,2.17
2018-12-18T09:46:35.628Z,2.22
2018-12-18T09:49:03.269Z,2.18
2018-12-18T09:51:31.006Z,2.28
2018-12-18T09:53:58.601Z,2.17
2018-12-18T09:56:26.200Z,2.27
2018-12-18T09:58:54.078Z,2.18
2018-12-18T10:01:21.679Z,2.22
2018-12-18T10:03:49.260Z,2.23
2018-12-18T10:06:17.037Z,2.40
2018-12-18T10:08:44.625Z,2.44
2018-12-18T10:11:12.289Z,2.55
2018-12-18T10:13:40.061Z,2.50
2018-12-18T10:16:07.707Z,2.50
2018-12-18T10:18:35.291Z,2.56
2018-12-18T10:21:03.158Z,2.50
2018-12-18T10:23:30.739Z,2.46
2018-12-18T10:25:58.338Z,2.56
2018-12-18T10:28:26.190Z,2.59
2018-12-18T10:30:54.770Z,2.58
2018-12-18T10:33:22.369Z,2.60
2018-12-18T10:35:50.194Z,2.58
2018-12-18T10:38:17.792Z,2.58
2018-12-18T10:40:45.373Z,2.59
2018-12-18T10:43:13.008Z,2.65
2018-12-18T10:45:40.606Z,2.69
2018-12-18T10:48:08.207Z,2.79
2018-12-18T10:50:35.970Z,2.95
2018-12-18T10:53:03.572Z,2.92
2018-12-18T10:55:31.166Z,2.77
2018-12-18T10:57:58.905Z,2.78
2018-12-18T11:00:32.160Z,2.92
2018-12-18T11:02:59.802Z,2.88
2018-12-18T11:05:27.401Z,2.86
2018-12-18T11:07:55.001Z,2.81
2018-12-18T11:10:22.765Z,2.96
2018-12-18T11:12:55.886Z,2.99
2018-12-18T11:15:23.780Z,2.97
2018-12-18T11:17:51.372Z,3.20
2018-12-18T11:20:18.951Z,3.22
2018-12-18T11:22:46.706Z,3.21
2018-12-18T11:25:14.361Z,3.21
2018-12-18T11:27:42.045Z,3.25
2018-12-18T11:30:10.056Z,3.32
2018-12-18T11:32:37.645Z,3.33
2018-12-18T11:35:05.311Z,3.26
2018-12-18T11:37:33.089Z,3.31
2018-12-18T11:40:00.675Z,3.34
2018-12-18T11:42:28.262Z,3.34
2018-12-18T11:44:56.246Z,3.32
2018-12-18T11:47:23.841Z,3.39
2018-12-18T11:49:51.426Z,3.29
2018-12-18T11:52:19.087Z,3.31
2018-12-18T11:54:46.692Z,3.18
2018-12-18T11:57:14.290Z,3.23
2018-12-18T11:59:42.271Z,3.11
2018-12-18T12:02:09.888Z,3.13
2018-12-18T12:04:37.490Z,2.97
2018-12-18T12:07:05.464Z,3.08
2018-12-18T12:09:33.091Z,2.95
2018-12-18T12:12:00.687Z,3.02
2018-12-18T12:14:28.409Z,3.09
2018-12-18T12:16:56.012Z,3.07
2018-12-18T12:19:23.627Z,3.10
2018-12-18T12:21:51.385Z,3.15
2018-12-18T12:24:18.989Z,3.20
2018-12-18T12:26:46.663Z,3.18
2018-12-18T12:29:14.786Z,3.19
2018-12-18T12:31:42.404Z,3.26
2018-12-18T12:34:09.989Z,3.10
2018-12-18T12:36:37.718Z,3.03
2018-12-18T12:39:05.424Z,3.06
2018-12-18T12:41:33.021Z,3.02
2018-12-18T12:44:00.840Z,3.18
2018-12-18T12:46:28.444Z,3.18
2018-12-18T12:48:56.054Z,3.10
2018-12-18T12:51:23.990Z,3.12
2018-12-18T12:53:51.575Z,3.01
2018-12-18T12:56:19.186Z,3.07
2018-12-18T12:58:47.068Z,3.28
2018-12-18T13:01:23.771Z,3.23
2018-12-18T13:03:51.598Z,3.19
2018-12-18T13:06:19.218Z,3.16
2018-12-18T13:08:46.876Z,3.06
2018-12-18T13:11:14.501Z,3.17
2018-12-18T13:13:42.102Z,3.29
2018-12-18T13:16:09.697Z,3.31
2018-12-18T13:18:37.370Z,3.20
2018-12-18T13:21:04.991Z,3.27
2018-12-18T13:23:32.585Z,3.26
2018-12-18T13:26:01.219Z,3.05
2018-12-18T13:28:28.792Z,3.08
2018-12-18T13:31:08.589Z,3.09
2018-12-18T13:33:36.173Z,3.10
2018-12-18T13:36:03.848Z,2.98
2018-12-18T13:38:31.682Z,3.07
2018-12-18T13:40:59.382Z,3.16
2018-12-18T13:43:26.979Z,3.06
2018-12-18T13:45:54.841Z,3.01
2018-12-18T13:48:22.458Z,3.11
2018-12-18T13:50:50.070Z,2.97
2018-12-18T13:53:17.812Z,2.99
2018-12-18T13:55:45.408Z,3.09
2018-12-18T13:58:13.012Z,3.02
2018-12-18T14:00:41.223Z,3.00
2018-12-18T14:03:08.808Z,3.05
2018-12-18T14:05:36.414Z,3.01
2018-12-18T14:08:04.112Z,3.07
2018-12-18T14:10:31.702Z,2.94
2018-12-18T14:12:59.309Z,3.01
2018-12-18T14:15:27.757Z,2.89
2018-12-18T14:17:55.423Z,3.05
2018-12-18T14:20:23.703Z,2.98
2018-12-18T14:22:51.454Z,3.02
2018-12-18T14:25:19.068Z,3.00
2018-12-18T14:27:46.674Z,2.96
2018-12-18T14:30:14.449Z,2.87
2018-12-18T14:32:42.061Z,2.91
2018-12-18T14:35:09.698Z,2.97
2018-12-18T14:37:37.454Z,3.02
2018-12-18T14:40:05.134Z,2.93
2018-12-18T14:42:32.745Z,2.92
2018-12-18T14:45:00.388Z,2.90
2018-12-18T14:47:27.997Z,2.87
2018-12-18T14:49:55.660Z,2.87
2018-12-18T14:52:23.342Z,2.92
2018-12-18T14:54:50.955Z,2.92
2018-12-18T14:57:18.582Z,2.93
2018-12-18T14:59:46.372Z,3.00
2018-12-18T15:02:13.974Z,3.01
2018-12-18T15:04:41.578Z,3.04
2018-12-18T15:07:09.501Z,3.04
2018-12-18T15:09:37.120Z,2.92
2018-12-18T15:12:04.801Z,2.85
2018-12-18T15:14:32.913Z,2.89
2018-12-18T15:17:00.522Z,2.80
2018-12-18T15:19:28.146Z,2.94
2018-12-18T15:21:55.813Z,3.04
2018-12-18T15:24:23.412Z,2.98
2018-12-18T15:26:51.010Z,3.06
2018-12-18T15:29:18.772Z,3.13
2018-12-18T15:31:46.407Z,2.98
2018-12-18T15:34:14.032Z,2.93
2018-12-18T15:36:41.749Z,2.88
2018-12-18T15:39:09.351Z,2.99
2018-12-18T15:41:36.945Z,3.04
2018-12-18T15:44:04.612Z,3.01
2018-12-18T15:46:32.215Z,3.04
2018-12-18T15:48:59.817Z,3.16
2018-12-18T15:51:27.582Z,3.13
2018-12-18T15:53:55.160Z,3.06
2018-12-18T15:56:22.751Z,3.04
2018-12-18T15:58:50.520Z,2.94
2018-12-18T16:01:18.150Z,3.10
2018-12-18T16:03:45.756Z,3.16
2018-12-18T16:06:13.521Z,3.20
2018-12-18T16:08:41.140Z,3.11
2018-12-18T16:11:08.868Z,3.19
2018-12-18T16:13:36.551Z,3.07
2018-12-18T16:16:04.248Z,3.16
2018-12-18T16:18:31.859Z,3.05
2018-12-18T16:20:59.713Z,2.97
2018-12-18T16:23:27.312Z,3.06
2018-12-18T16:25:54.930Z,3.05
2018-12-18T16:28:22.801Z,3.11
2018-12-18T16:30:51.148Z,3.03
2018-12-18T16:33:18.802Z,3.08
2018-12-18T16:35:46.544Z,3.10
2018-12-18T16:38:14.126Z,3.03
2018-12-18T16:40:41.733Z,3.11
2018-12-18T16:43:09.516Z,2.95
2018-12-18T16:45:37.127Z,2.99
2018-12-18T16:48:04.777Z,3.21
2018-12-18T16:50:32.446Z,3.17
2018-12-18T16:53:00.045Z,3.02
2018-12-18T16:55:27.641Z,3.00
2018-12-18T16:57:55.300Z,2.91
2018-12-18T17:00:22.914Z,2.96
2018-12-18T17:02:50.513Z,3.04
2018-12-18T17:05:18.549Z,2.87
2018-12-18T17:07:46.141Z,2.76
2018-12-18T17:10:13.775Z,2.74
2018-12-18T17:12:41.698Z,2.85
2018-12-18T17:15:09.331Z,2.94
2018-12-18T17:17:36.946Z,2.84
2018-12-18T17:20:04.810Z,2.85
2018-12-18T17:22:32.397Z,3.00
2018-12-18T17:24:59.995Z,2.95
2018-12-18T17:27:27.633Z,3.07
2018-12-18T17:29:55.221Z,2.89
2018-12-18T17:32:22.836Z,2.84
2018-12-18T17:34:50.469Z,2.75
2018-12-18T17:37:18.061Z,2.76
2018-12-18T17:39:45.672Z,2.81
2018-12-18T17:42:13.675Z,2.68
2018-12-18T17:44:41.282Z,2.73
2018-12-18T17:47:08.897Z,2.71
2018-12-18T17:49:36.699Z,2.90
2018-12-18T17:52:04.317Z,2.85
2018-12-18T17:54:31.906Z,2.73
2018-12-18T17:56:59.541Z,2.90
2018-12-18T17:59:27.153Z,2.78
2018-12-18T18:01:54.785Z,2.73
2018-12-18T18:04:22.552Z,2.76
2018-12-18T18:06:50.159Z,2.76
2018-12-18T18:09:17.761Z,2.74
2018-12-18T18:11:45.546Z,2.74
2018-12-18T18:14:13.163Z,2.69
2018-12-18T18:16:40.753Z,2.67
2018-12-18T18:19:08.538Z,2.61
2018-12-18T18:21:36.135Z,2.65
2018-12-18T18:24:03.739Z,2.69
2018-12-18T18:26:32.280Z,2.46
2018-12-18T18:28:59.460Z,2.40
2018-12-18T18:31:27.063Z,2.68
2018-12-18T18:33:54.742Z,2.60
2018-12-18T18:36:22.348Z,2.75
2018-12-18T18:38:49.961Z,2.69
2018-12-18T18:41:31.716Z,2.54
2018-12-18T18:43:59.326Z,2.51
2018-12-18T18:46:26.924Z,2.58
2018-12-18T18:48:54.893Z,2.56
2018-12-18T18:51:22.494Z,2.48
2018-12-18T18:53:50.117Z,2.57
2018-12-18T18:56:17.879Z,2.59
2018-12-18T18:58:45.436Z,2.57
2018-12-18T19:01:12.999Z,2.47
2018-12-18T19:03:40.975Z,2.43
2018-12-18T19:06:08.566Z,2.48
2018-12-18T19:08:36.109Z,2.53
2018-12-18T19:11:14.195Z,2.48
2018-12-18T19:13:41.768Z,2.36
2018-12-18T19:16:09.322Z,2.37
2018-12-18T19:18:36.981Z,2.41
2018-12-18T19:21:04.538Z,2.51
2018-12-18T19:23:32.102Z,2.58
2018-12-18T19:25:59.917Z,2.57
2018-12-18T19:28:27.469Z,2.71
2018-12-18T19:30:56.036Z,2.57
2018-12-18T19:33:23.705Z,2.63
2018-12-18T19:35:51.263Z,2.56
2018-12-18T19:38:18.817Z,2.67
2018-12-18T19:40:46.519Z,2.71
2018-12-18T19:43:14.105Z,2.61
2018-12-18T19:45:41.666Z,2.51
2018-12-18T19:48:09.405Z,2.49
2018-12-18T19:50:36.991Z,2.57
2018-12-18T19:53:04.549Z,2.59
2018-12-18T19:55:32.420Z,2.48
2018-12-18T19:57:59.987Z,2.54
2018-12-18T20:00:27.504Z,2.62
2018-12-18T20:02:55.433Z,2.48
2018-12-18T20:05:23.022Z,2.42
2018-12-18T20:07:50.558Z,2.35
2018-12-18T20:10:18.248Z,2.43
2018-12-18T20:12:45.810Z,2.47
2018-12-18T20:15:13.413Z,2.44
2018-12-18T20:17:41.254Z,2.40
2018-12-18T20:20:08.877Z,2.34
2018-12-18T20:22:36.439Z,2.40
2018-12-18T20:25:04.177Z,2.39
2018-12-18T20:27:31.716Z,2.24
2018-12-18T20:29:59.322Z,2.08
2018-12-18T20:32:27.057Z,2.11
2018-12-18T20:34:54.604Z,2.14
2018-12-18T20:37:22.132Z,2.24
2018-12-18T20:39:49.797Z,2.26
2018-12-18T20:42:17.365Z,2.41
2018-12-18T20:44:44.923Z,2.18
2018-12-18T20:47:12.633Z,2.00
2018-12-18T20:49:40.867Z,2.06
2018-12-18T20:52:07.786Z,1.89
2018-12-18T20:54:35.498Z,1.99
2018-12-18T20:57:03.030Z,2.00
2018-12-18T20:59:30.590Z,2.21
2018-12-18T21:01:58.464Z,2.26
2018-12-18T21:04:26.013Z,2.13
2018-12-18T21:06:53.591Z,2.07
2018-12-18T21:09:21.644Z,1.98
2018-12-18T21:11:49.173Z,1.90
2018-12-18T21:14:16.742Z,1.79
2018-12-18T21:16:44.431Z,1.74
2018-12-18T21:19:12.026Z,1.86
2018-12-18T21:21:39.580Z,1.92
2018-12-18T21:24:07.542Z,1.89
2018-12-18T21:26:35.094Z,1.80
2018-12-18T21:29:02.654Z,1.94
2018-12-18T21:31:30.623Z,1.83
2018-12-18T21:33:58.186Z,1.74
2018-12-18T21:36:25.775Z,1.61
2018-12-18T21:38:53.507Z,1.62
2018-12-18T21:41:24.163Z,1.67
2018-12-18T21:43:51.721Z,1.70
2018-12-18T21:46:19.349Z,1.68
2018-12-18T21:48:46.905Z,1.78
2018-12-18T21:51:17.983Z,1.65
2018-12-18T21:53:45.557Z,1.57
2018-12-18T21:56:13.109Z,1.54
2018-12-18T21:58:40.673Z,1.59
2018-12-18T22:01:08.547Z,1.67
2018-12-18T22:03:36.097Z,1.60
2018-12-18T22:06:03.661Z,1.54
2018-12-18T22:08:36.828Z,1.59
2018-12-18T22:11:05.973Z,1.44
2018-12-18T22:13:33.740Z,1.64
2018-12-18T22:16:01.306Z,1.66
2018-12-18T22:18:28.852Z,1.51
2018-12-18T22:20:56.476Z,1.64
2018-12-18T22:23:24.020Z,1.73
2018-12-18T22:25:51.566Z,1.64
2018-12-18T22:28:19.237Z,1.63
2018-12-18T22:30:46.801Z,1.69
2018-12-18T22:33:14.408Z,1.78
2018-12-18T22:35:42.316Z,1.64
2018-12-18T22:38:09.877Z,1.73
2018-12-18T22:40:37.436Z,1.52
2018-12-18T22:43:05.096Z,1.39
2018-12-18T22:45:32.640Z,1.42
2018-12-18T22:48:00.186Z,1.31
2018-12-18T22:50:27.901Z,1.26
2018-12-18T22:52:55.468Z,1.24
2018-12-18T22:55:23.046Z,1.51
2018-12-18T22:57:50.722Z,1.68
2018-12-18T23:00:23.966Z,1.63
2018-12-18T23:02:51.676Z,1.55
2018-12-18T23:05:19.256Z,1.44
2018-12-18T23:07:46.794Z,1.56
2018-12-18T23:10:14.421Z,1.48
2018-12-18T23:12:41.962Z,1.44
2018-12-18T23:15:09.538Z,1.49
2018-12-18T23:17:37.157Z,1.56
2018-12-18T23:20:04.782Z,1.54
2018-12-18T23:22:32.355Z,1.50
2018-12-18T23:25:00.067Z,1.50
2018-12-18T23:27:27.621Z,1.42
2018-12-18T23:29:55.169Z,1.31
2018-12-18T23:32:22.908Z,1.44
2018-12-18T23:34:50.449Z,1.47
2018-12-18T23:37:18.005Z,1.32
2018-12-18T23:39:46.234Z,1.14
2018-12-18T23:42:13.777Z,1.09
2018-12-18T23:44:41.355Z,1.14
2018-12-18T23:47:09.222Z,1.32
2018-12-18T23:49:36.794Z,1.12
2018-12-18T23:52:04.365Z,1.04
2018-12-18T23:54:32.077Z,1.01
2018-12-18T23:56:59.649Z,0.97
2018-12-18T23:59:27.206Z,1.04
